createdAt,value
2016-05-23T00:00:11.669Z,0
2016-05-23T00:01:11.875Z,0
2016-05-23T00:02:12.065Z,0
2016-05-23T00:03:12.114Z,0
2016-05-23T00:04:12.148Z,0
2016-05-23T00:05:12.198Z,0
2016-05-23T00:06:12.091Z,0
2016-05-23T00:07:12.156Z,0
2016-05-23T00:08:12.331Z,0
2016-05-23T00:09:12.100Z,0
2016-05-23T00:10:12.102Z,0
2016-05-23T00:11:12.183Z,0
2016-05-23T00:12:12.514Z,0
2016-05-23T00:13:12.563Z,0
2016-05-23T00:14:13.096Z,0
2016-05-23T00:15:12.630Z,0
2016-05-23T00:16:12.666Z,0
2016-05-23T00:17:12.777Z,0
2016-05-23T00:18:12.763Z,0
2016-05-23T00:19:12.674Z,0
2016-05-23T00:20:12.723Z,0
2016-05-23T00:21:12.819Z,0
2016-05-23T00:22:12.931Z,0
2016-05-23T00:23:13.013Z,0
2016-05-23T00:24:13.062Z,0
2016-05-23T00:25:13.064Z,0
2016-05-23T00:26:13.130Z,0
2016-05-23T00:27:13.037Z,0
2016-05-23T00:28:13.104Z,0
2016-05-23T00:29:13.137Z,0
2016-05-23T00:30:13.125Z,0
2016-05-23T00:31:13.346Z,0
2016-05-23T00:32:13.426Z,0
2016-05-23T00:33:13.258Z,0
2016-05-23T00:34:13.511Z,0
2016-05-23T00:35:13.591Z,0
2016-05-23T00:36:13.562Z,0
2016-05-23T00:37:13.597Z,0
2016-05-23T00:38:13.678Z,0
2016-05-23T00:39:13.555Z,0
2016-05-23T00:40:13.792Z,0
2016-05-23T00:41:13.747Z,0
2016-05-23T00:42:13.860Z,0
2016-05-23T00:43:13.785Z,0
2016-05-23T00:44:13.772Z,0
2016-05-23T00:45:13.790Z,0
2016-05-23T00:46:13.855Z,0
2016-05-23T00:47:14.046Z,0
2016-05-23T00:48:13.907Z,0
2016-05-23T00:49:14.160Z,0
2016-05-23T00:50:14.163Z,0
2016-05-23T00:51:14.213Z,0
2016-05-23T00:52:14.137Z,0
2016-05-23T00:53:14.326Z,0
2016-05-23T00:54:14.221Z,0
2016-05-23T00:55:14.207Z,0
2016-05-23T00:56:14.490Z,0
2016-05-23T00:57:14.307Z,0
2016-05-23T00:58:14.371Z,0
2016-05-23T00:59:14.390Z,0
2016-05-23T01:00:14.642Z,0
2016-05-23T01:01:14.349Z,0
2016-05-23T01:02:14.539Z,0
2016-05-23T01:03:14.588Z,0
2016-05-23T01:04:14.467Z,0
2016-05-23T01:05:14.687Z,0
2016-05-23T01:06:14.847Z,0
2016-05-23T01:07:14.583Z,0
2016-05-23T01:08:14.773Z,0
2016-05-23T01:09:14.980Z,0
2016-05-23T01:10:14.857Z,0
2016-05-23T01:11:15.141Z,0
2016-05-23T01:12:15.081Z,0
2016-05-23T01:13:14.834Z,0
2016-05-23T01:14:15.446Z,0
2016-05-23T01:15:15.277Z,0
2016-05-23T01:16:15.280Z,0
2016-05-23T01:17:15.016Z,0
2016-05-23T01:18:15.394Z,0
2016-05-23T01:19:15.413Z,0
2016-05-23T01:20:15.447Z,0
2016-05-23T01:21:15.543Z,0
2016-05-23T01:22:15.593Z,0
2016-05-23T01:23:15.579Z,0
2016-05-23T01:24:15.645Z,0
2016-05-23T01:25:15.538Z,0
2016-05-23T01:26:15.587Z,0
2016-05-23T01:27:15.747Z,0
2016-05-23T01:28:15.812Z,0
2016-05-23T01:29:15.736Z,0
2016-05-23T01:30:15.754Z,0
2016-05-23T01:31:15.632Z,0
2016-05-23T01:32:15.854Z,0
2016-05-23T01:33:16.090Z,0
2016-05-23T01:34:15.906Z,0
2016-05-23T01:35:16.112Z,0
2016-05-23T01:36:15.817Z,0
2016-05-23T01:37:16.242Z,0
2016-05-23T01:38:16.228Z,0
2016-05-23T01:39:16.123Z,0
2016-05-23T01:40:16.156Z,0
2016-05-23T01:41:16.347Z,0
2016-05-23T01:42:16.412Z,0
2016-05-23T01:43:16.461Z,0
2016-05-23T01:44:16.511Z,0
2016-05-23T01:45:16.514Z,0
2016-05-23T01:46:16.469Z,0
2016-05-23T01:47:16.457Z,0
2016-05-23T01:48:16.538Z,0
2016-05-23T01:49:16.712Z,0
2016-05-23T01:50:16.793Z,0
2016-05-23T01:51:16.827Z,0
2016-05-23T01:52:16.813Z,0
2016-05-23T01:53:16.848Z,0
2016-05-23T01:54:16.788Z,0
2016-05-23T01:55:16.994Z,0
2016-05-23T01:56:17.012Z,0
2016-05-23T01:57:16.905Z,0
2016-05-23T01:58:16.955Z,0
2016-05-23T01:59:17.004Z,0
2016-05-23T02:00:17.179Z,0
2016-05-23T02:01:17.072Z,0
2016-05-23T02:02:17.248Z,0
2016-05-23T02:03:17.312Z,0
2016-05-23T02:04:17.486Z,0
2016-05-23T02:05:17.443Z,0
2016-05-23T02:06:17.445Z,0
2016-05-23T02:07:17.478Z,0
2016-05-23T02:08:17.545Z,0
2016-05-23T02:09:17.407Z,0
2016-05-23T02:10:17.597Z,0
2016-05-23T02:11:17.647Z,0
2016-05-23T02:12:17.727Z,0
2016-05-23T02:13:17.635Z,0
2016-05-23T02:14:17.608Z,0
2016-05-23T02:15:17.860Z,0
2016-05-23T02:16:17.738Z,0
2016-05-23T02:17:17.912Z,0
2016-05-23T02:18:17.946Z,0
2016-05-23T02:19:17.902Z,0
2016-05-23T02:20:17.936Z,0
2016-05-23T02:21:18.064Z,0
2016-05-23T02:22:17.957Z,0
2016-05-23T02:23:18.194Z,0
2016-05-23T02:24:18.228Z,0
2016-05-23T02:25:18.090Z,0
2016-05-23T02:26:18.280Z,0
2016-05-23T02:27:18.408Z,0
2016-05-23T02:28:18.223Z,0
2016-05-23T02:29:19.023Z,0
2016-05-23T02:30:18.510Z,0
2016-05-23T02:31:18.543Z,0
2016-05-23T02:32:18.375Z,0
2016-05-23T02:33:18.581Z,0
2016-05-23T02:34:18.490Z,0
2016-05-23T02:35:18.679Z,0
2016-05-23T02:36:18.697Z,0
2016-05-23T02:37:18.842Z,0
2016-05-23T02:38:18.500Z,0
2016-05-23T02:39:18.690Z,0
2016-05-23T02:40:18.739Z,0
2016-05-23T02:41:18.649Z,0
2016-05-23T02:42:18.901Z,0
2016-05-23T02:43:19.014Z,0
2016-05-23T02:44:18.938Z,0
2016-05-23T02:45:19.175Z,0
2016-05-23T02:46:18.991Z,0
2016-05-23T02:47:19.180Z,0
2016-05-23T02:48:19.277Z,0
2016-05-23T02:49:19.124Z,0
2016-05-23T02:50:19.158Z,0
2016-05-23T02:51:19.191Z,0
2016-05-23T02:52:19.460Z,0
2016-05-23T02:53:19.352Z,0
2016-05-23T02:54:19.512Z,0
2016-05-23T02:55:19.577Z,0
2016-05-23T02:56:19.439Z,0
2016-05-23T02:57:19.333Z,0
2016-05-23T02:58:19.491Z,0
2016-05-23T02:59:20.165Z,5
2016-05-23T03:00:19.746Z,5
2016-05-23T03:01:19.796Z,5
2016-05-23T03:02:19.659Z,5
2016-05-23T03:03:19.567Z,5
2016-05-23T03:04:19.757Z,5
2016-05-23T03:05:19.962Z,5
2016-05-23T03:06:20.012Z,5
2016-05-23T03:07:20.047Z,10
2016-05-23T03:08:19.784Z,10
2016-05-23T03:09:20.005Z,10
2016-05-23T03:10:20.023Z,10
2016-05-23T03:11:20.214Z,10
2016-05-23T03:12:20.248Z,10
2016-05-23T03:13:20.141Z,10
2016-05-23T03:14:20.722Z,15
2016-05-23T03:15:20.225Z,15
2016-05-23T03:16:20.415Z,15
2016-05-23T03:17:20.480Z,20
2016-05-23T03:18:20.529Z,20
2016-05-23T03:19:20.564Z,20
2016-05-23T03:20:20.628Z,25
2016-05-23T03:21:20.647Z,25
2016-05-23T03:22:20.681Z,30
2016-05-23T03:23:20.715Z,30
2016-05-23T03:24:20.593Z,35
2016-05-23T03:25:20.674Z,35
2016-05-23T03:26:20.833Z,35
2016-05-23T03:27:20.960Z,35
2016-05-23T03:28:20.962Z,40
2016-05-23T03:29:21.027Z,40
2016-05-23T03:30:21.030Z,45
2016-05-23T03:31:21.127Z,45
2016-05-23T03:32:21.114Z,50
2016-05-23T03:33:21.148Z,50
2016-05-23T03:34:21.103Z,50
2016-05-23T03:35:20.951Z,55
2016-05-23T03:36:21.265Z,55
2016-05-23T03:37:21.159Z,55
2016-05-23T03:38:21.239Z,55
2016-05-23T03:39:21.398Z,60
2016-05-23T03:40:21.261Z,60
2016-05-23T03:41:21.404Z,60
2016-05-23T03:42:21.562Z,60
2016-05-23T03:43:21.565Z,60
2016-05-23T03:44:21.943Z,65
2016-05-23T03:45:21.508Z,65
2016-05-23T03:46:21.558Z,65
2016-05-23T03:47:21.607Z,65
2016-05-23T03:48:21.798Z,65
2016-05-23T03:49:22.316Z,65
2016-05-23T03:50:21.725Z,65
2016-05-23T03:51:21.947Z,65
2016-05-23T03:52:21.839Z,65
2016-05-23T03:53:21.983Z,65
2016-05-23T03:54:22.017Z,70
2016-05-23T03:55:22.098Z,70
2016-05-23T03:56:22.132Z,70
2016-05-23T03:57:22.010Z,75
2016-05-23T03:58:22.215Z,75
2016-05-23T03:59:22.390Z,80
2016-05-23T04:00:22.346Z,80
2016-05-23T04:01:22.332Z,85
2016-05-23T04:02:22.398Z,90
2016-05-23T04:03:22.494Z,90
2016-05-23T04:04:22.466Z,90
2016-05-23T04:05:22.359Z,90
2016-05-23T04:06:22.534Z,95
2016-05-23T04:07:22.443Z,95
2016-05-23T04:08:22.633Z,95
2016-05-23T04:09:22.682Z,100
2016-05-23T04:10:22.560Z,100
2016-05-23T04:11:22.750Z,100
2016-05-23T04:12:22.800Z,100
2016-05-23T04:13:22.865Z,100
2016-05-23T04:14:22.587Z,105
2016-05-23T04:15:22.933Z,105
2016-05-23T04:16:23.014Z,105
2016-05-23T04:17:22.861Z,105
2016-05-23T04:18:23.050Z,105
2016-05-23T04:19:23.084Z,105
2016-05-23T04:20:23.040Z,105
2016-05-23T04:21:23.199Z,100
2016-05-23T04:22:23.249Z,100
2016-05-23T04:23:23.283Z,95
2016-05-23T04:24:23.316Z,95
2016-05-23T04:25:23.038Z,95
2016-05-23T04:26:23.400Z,95
2016-05-23T04:27:23.481Z,100
2016-05-23T04:28:23.343Z,105
2016-05-23T04:29:24.018Z,105
2016-05-23T04:30:23.535Z,110
2016-05-23T04:31:23.632Z,110
2016-05-23T04:32:23.509Z,110
2016-05-23T04:33:23.543Z,115
2016-05-23T04:34:23.765Z,115
2016-05-23T04:35:23.799Z,115
2016-05-23T04:36:23.833Z,115
2016-05-23T04:37:23.851Z,115
2016-05-23T04:38:23.948Z,120
2016-05-23T04:39:23.998Z,120
2016-05-23T04:40:24.000Z,125
2016-05-23T04:41:24.096Z,125
2016-05-23T04:42:24.115Z,130
2016-05-23T04:43:24.102Z,135
2016-05-23T04:44:24.448Z,145
2016-05-23T04:45:24.201Z,145
2016-05-23T04:46:24.251Z,150
2016-05-23T04:47:24.269Z,150
2016-05-23T04:48:24.319Z,150
2016-05-23T04:49:24.368Z,150
2016-05-23T04:50:24.528Z,150
2016-05-23T04:51:24.453Z,150
2016-05-23T04:52:24.407Z,150
2016-05-23T04:53:24.442Z,150
2016-05-23T04:54:24.585Z,150
2016-05-23T04:55:24.634Z,145
2016-05-23T04:56:24.684Z,145
2016-05-23T04:57:24.719Z,140
2016-05-23T04:58:24.580Z,140
2016-05-23T04:59:24.785Z,140
2016-05-23T05:00:24.727Z,140
2016-05-23T05:01:24.713Z,140
2016-05-23T05:02:24.903Z,140
2016-05-23T05:03:24.984Z,135
2016-05-23T05:04:24.859Z,130
2016-05-23T05:05:24.911Z,130
2016-05-23T05:06:25.071Z,130
2016-05-23T05:07:24.805Z,135
2016-05-23T05:08:25.779Z,135
2016-05-23T05:09:25.544Z,135
2016-05-23T05:10:25.329Z,130
2016-05-23T05:11:25.378Z,130
2016-05-23T05:12:25.599Z,125
2016-05-23T05:13:25.493Z,125
2016-05-23T05:14:26.389Z,125
2016-05-23T05:15:25.514Z,125
2016-05-23T05:16:25.375Z,125
2016-05-23T05:17:25.785Z,125
2016-05-23T05:18:25.709Z,125
2016-05-23T05:19:25.634Z,125
2016-05-23T05:20:26.167Z,125
2016-05-23T05:21:25.734Z,125
2016-05-23T05:22:25.595Z,125
2016-05-23T05:23:26.253Z,125
2016-05-23T05:24:25.835Z,130
2016-05-23T05:25:26.009Z,130
2016-05-23T05:26:25.964Z,130
2016-05-23T05:27:25.922Z,125
2016-05-23T05:28:26.033Z,120
2016-05-23T05:29:25.848Z,125
2016-05-23T05:30:25.992Z,125
2016-05-23T05:31:25.994Z,135
2016-05-23T05:32:26.278Z,135
2016-05-23T05:33:26.390Z,140
2016-05-23T05:34:26.268Z,140
2016-05-23T05:35:26.146Z,135
2016-05-23T05:36:26.180Z,135
2016-05-23T05:37:26.416Z,140
2016-05-23T05:38:26.341Z,145
2016-05-23T05:39:28.579Z,150
2016-05-23T05:40:27.019Z,150
2016-05-23T05:41:26.287Z,150
2016-05-23T05:42:26.602Z,155
2016-05-23T05:43:26.652Z,155
2016-05-23T05:44:27.013Z,160
2016-05-23T05:45:26.735Z,165
2016-05-23T05:46:26.909Z,165
2016-05-23T05:47:28.740Z,170
2016-05-23T05:48:26.868Z,170
2016-05-23T05:49:27.245Z,170
2016-05-23T05:50:26.967Z,170
2016-05-23T05:51:26.986Z,170
2016-05-23T05:52:26.973Z,170
2016-05-23T05:53:27.194Z,170
2016-05-23T05:54:26.962Z,165
2016-05-23T05:55:27.090Z,165
2016-05-23T05:56:27.233Z,165
2016-05-23T05:57:27.298Z,160
2016-05-23T05:58:27.130Z,165
2016-05-23T05:59:27.414Z,165
2016-05-23T06:00:27.431Z,165
2016-05-23T06:01:28.309Z,165
2016-05-23T06:02:27.484Z,165
2016-05-23T06:03:27.253Z,165
2016-05-23T06:04:27.396Z,165
2016-05-23T06:05:27.774Z,165
2016-05-23T06:06:28.308Z,165
2016-05-23T06:07:28.122Z,160
2016-05-23T06:08:27.734Z,160
2016-05-23T06:09:27.815Z,160
2016-05-23T06:10:27.943Z,165
2016-05-23T06:11:27.836Z,170
2016-05-23T06:12:27.917Z,170
2016-05-23T06:13:27.935Z,170
2016-05-23T06:14:28.140Z,175
2016-05-23T06:15:28.004Z,175
2016-05-23T06:16:28.146Z,180
2016-05-23T06:17:28.118Z,185
2016-05-23T06:18:28.246Z,195
2016-05-23T06:19:28.218Z,210
2016-05-23T06:20:28.282Z,220
2016-05-23T06:21:29.129Z,235
2016-05-23T06:22:29.695Z,235
2016-05-23T06:23:30.087Z,235
2016-05-23T06:24:28.417Z,230
2016-05-23T06:25:28.342Z,235
2016-05-23T06:26:31.536Z,240
2016-05-23T06:27:28.989Z,250
2016-05-23T06:28:29.663Z,260
2016-05-23T06:29:29.431Z,255
2016-05-23T06:30:30.278Z,255
2016-05-23T06:31:30.359Z,250
2016-05-23T06:32:28.783Z,250
2016-05-23T06:33:31.052Z,250
2016-05-23T06:34:29.602Z,250
2016-05-23T06:35:30.558Z,260
2016-05-23T06:36:29.685Z,260
2016-05-23T06:37:29.781Z,275
2016-05-23T06:38:29.159Z,290
2016-05-23T06:39:28.897Z,305
2016-05-23T06:40:31.054Z,310
2016-05-23T06:41:29.042Z,340
2016-05-23T06:42:29.169Z,360
2016-05-23T06:43:29.204Z,390
2016-05-23T06:44:29.440Z,415
2016-05-23T06:45:32.399Z,455
2016-05-23T06:46:29.352Z,470
2016-05-23T06:47:29.387Z,480
2016-05-23T06:48:29.265Z,500
2016-05-23T06:49:29.511Z,505
2016-05-23T06:50:29.399Z,500
2016-05-23T06:51:32.627Z,500
2016-05-23T06:52:29.580Z,505
2016-05-23T06:53:31.139Z,530
2016-05-23T06:54:29.556Z,540
2016-05-23T06:55:30.178Z,540
2016-05-23T06:56:30.205Z,535
2016-05-23T06:57:30.156Z,530
2016-05-23T06:58:30.057Z,520
2016-05-23T06:59:30.391Z,515
2016-05-23T07:00:31.193Z,505
2016-05-23T07:01:30.372Z,505
2016-05-23T07:02:30.127Z,490
2016-05-23T07:03:30.649Z,485
2016-05-23T07:04:31.793Z,480
2016-05-23T07:05:32.941Z,475
2016-05-23T07:06:30.925Z,475
2016-05-23T07:07:37.418Z,480
2016-05-23T07:08:30.637Z,490
2016-05-23T07:09:33.580Z,495
2016-05-23T07:10:34.162Z,495
2016-05-23T07:11:36.820Z,500
2016-05-23T07:12:31.727Z,505
2016-05-23T07:13:33.515Z,500
2016-05-23T07:14:32.140Z,495
2016-05-23T07:15:34.629Z,480
2016-05-23T07:16:37.149Z,465
2016-05-23T07:17:31.618Z,455
2016-05-23T07:18:31.558Z,435
2016-05-23T07:19:31.091Z,430
2016-05-23T07:20:31.266Z,435
2016-05-23T07:21:34.069Z,450
2016-05-23T07:22:32.585Z,435
2016-05-23T07:23:32.353Z,385
2016-05-23T07:24:33.312Z,335
2016-05-23T07:25:31.812Z,325
2016-05-23T07:26:33.832Z,350
2016-05-23T07:27:34.287Z,360
2016-05-23T07:28:34.353Z,345
2016-05-23T07:29:32.618Z,335
2016-05-23T07:30:32.731Z,330
2016-05-23T07:31:35.767Z,330
2016-05-23T07:32:34.708Z,335
2016-05-23T07:33:34.413Z,345
2016-05-23T07:34:35.307Z,360
2016-05-23T07:35:36.669Z,375
2016-05-23T07:36:35.281Z,390
2016-05-23T07:37:33.737Z,415
2016-05-23T07:38:34.912Z,435
2016-05-23T07:39:35.570Z,445
2016-05-23T07:40:34.339Z,420
2016-05-23T07:41:34.028Z,420
2016-05-23T07:42:35.047Z,410
2016-05-23T07:43:34.190Z,360
2016-05-23T07:44:35.194Z,305
2016-05-23T07:45:32.428Z,265
2016-05-23T07:46:32.305Z,260
2016-05-23T07:47:32.323Z,280
2016-05-23T07:48:33.576Z,320
2016-05-23T07:49:32.938Z,335
2016-05-23T07:50:32.518Z,310
2016-05-23T07:51:33.882Z,260
2016-05-23T07:52:32.993Z,225
2016-05-23T07:53:32.871Z,235
2016-05-23T07:54:33.435Z,290
2016-05-23T07:55:34.379Z,365
2016-05-23T07:56:39.273Z,400
2016-05-23T07:57:32.726Z,390
2016-05-23T07:58:32.634Z,400
2016-05-23T07:59:33.215Z,395
2016-05-23T08:00:32.889Z,390
2016-05-23T08:01:35.942Z,390
2016-05-23T08:02:32.957Z,400
2016-05-23T08:03:32.992Z,420
2016-05-23T08:04:33.072Z,440
2016-05-23T08:05:33.106Z,475
2016-05-23T08:06:33.640Z,505
2016-05-23T08:07:33.237Z,515
2016-05-23T08:08:33.223Z,530
2016-05-23T08:09:33.101Z,530
2016-05-23T08:10:33.667Z,510
2016-05-23T08:11:35.688Z,485
2016-05-23T08:12:35.237Z,475
2016-05-23T08:13:34.097Z,485
2016-05-23T08:14:35.477Z,485
2016-05-23T08:15:33.399Z,480
2016-05-23T08:16:34.526Z,465
2016-05-23T08:17:33.669Z,460
2016-05-23T08:18:33.844Z,445
2016-05-23T08:19:33.753Z,430
2016-05-23T08:20:33.569Z,455
2016-05-23T08:21:33.665Z,455
2016-05-23T08:22:33.871Z,450
2016-05-23T08:23:34.170Z,465
2016-05-23T08:24:33.845Z,490
2016-05-23T08:25:33.847Z,515
2016-05-23T08:26:36.665Z,515
2016-05-23T08:27:34.181Z,510
2016-05-23T08:28:35.027Z,500
2016-05-23T08:29:45.814Z,490
2016-05-23T08:30:34.501Z,480
2016-05-23T08:31:34.739Z,470
2016-05-23T08:32:34.132Z,475
2016-05-23T08:33:34.369Z,490
2016-05-23T08:34:34.637Z,525
2016-05-23T08:35:34.515Z,550
2016-05-23T08:36:36.380Z,535
2016-05-23T08:37:34.551Z,535
2016-05-23T08:38:34.633Z,515
2016-05-23T08:39:34.807Z,515
2016-05-23T08:40:34.638Z,510
2016-05-23T08:41:35.594Z,495
2016-05-23T08:42:34.830Z,475
2016-05-23T08:43:35.161Z,470
2016-05-23T08:44:36.745Z,470
2016-05-23T08:45:38.530Z,480
2016-05-23T08:46:38.110Z,490
2016-05-23T08:47:37.144Z,495
2016-05-23T08:48:40.897Z,485
2016-05-23T08:49:41.899Z,485
2016-05-23T08:50:36.963Z,485
2016-05-23T08:51:35.042Z,505
2016-05-23T08:52:39.954Z,520
2016-05-23T08:53:44.019Z,525
2016-05-23T08:54:41.054Z,530
2016-05-23T08:55:41.228Z,540
2016-05-23T08:56:42.590Z,535
2016-05-23T08:57:42.515Z,525
2016-05-23T08:58:38.282Z,515
2016-05-23T08:59:40.223Z,510
2016-05-23T09:00:35.598Z,510
2016-05-23T09:01:38.868Z,505
2016-05-23T09:02:35.728Z,495
2016-05-23T09:03:35.965Z,510
2016-05-23T09:04:39.237Z,530
2016-05-23T09:05:36.456Z,515
2016-05-23T09:06:36.239Z,475
2016-05-23T09:07:36.523Z,480
2016-05-23T09:08:37.716Z,510
2016-05-23T09:09:38.953Z,535
2016-05-23T09:10:37.611Z,540
2016-05-23T09:11:37.130Z,530
2016-05-23T09:12:36.349Z,550
2016-05-23T09:13:36.242Z,585
2016-05-23T09:14:36.808Z,610
2016-05-23T09:15:37.766Z,625
2016-05-23T09:16:37.144Z,630
2016-05-23T09:17:36.472Z,635
2016-05-23T09:18:36.397Z,635
2016-05-23T09:19:36.494Z,620
2016-05-23T09:20:36.652Z,615
2016-05-23T09:21:38.188Z,600
2016-05-23T09:22:36.766Z,640
2016-05-23T09:23:37.066Z,635
2016-05-23T09:24:37.837Z,620
2016-05-23T09:25:37.871Z,640
2016-05-23T09:26:36.793Z,670
2016-05-23T09:27:38.970Z,695
2016-05-23T09:28:36.892Z,730
2016-05-23T09:29:37.238Z,770
2016-05-23T09:30:37.069Z,760
2016-05-23T09:31:36.946Z,750
2016-05-23T09:32:38.843Z,740
2016-05-23T09:33:37.452Z,725
2016-05-23T09:34:37.048Z,720
2016-05-23T09:35:43.320Z,785
2016-05-23T09:36:37.664Z,820
2016-05-23T09:37:41.809Z,820
2016-05-23T09:38:38.703Z,780
2016-05-23T09:39:37.875Z,720
2016-05-23T09:40:37.939Z,640
2016-05-23T09:41:37.661Z,590
2016-05-23T09:42:39.058Z,585
2016-05-23T09:43:37.636Z,670
2016-05-23T09:44:37.811Z,745
2016-05-23T09:45:37.719Z,800
2016-05-23T09:46:39.536Z,740
2016-05-23T09:47:39.056Z,685
2016-05-23T09:48:37.978Z,580
2016-05-23T09:49:38.183Z,490
2016-05-23T09:50:38.029Z,455
2016-05-23T09:51:38.047Z,445
2016-05-23T09:52:40.272Z,445
2016-05-23T09:53:38.272Z,470
2016-05-23T09:54:39.965Z,475
2016-05-23T09:55:38.246Z,500
2016-05-23T09:56:38.218Z,525
2016-05-23T09:57:38.626Z,575
2016-05-23T09:58:39.176Z,615
2016-05-23T09:59:38.757Z,650
2016-05-23T10:00:39.385Z,645
2016-05-23T10:01:39.780Z,535
2016-05-23T10:02:42.987Z,445
2016-05-23T10:03:41.161Z,400
2016-05-23T10:04:39.115Z,370
2016-05-23T10:05:38.663Z,340
2016-05-23T10:06:38.713Z,315
2016-05-23T10:07:41.125Z,330
2016-05-23T10:08:38.828Z,355
2016-05-23T10:09:39.423Z,360
2016-05-23T10:10:38.723Z,330
2016-05-23T10:11:40.479Z,330
2016-05-23T10:12:43.763Z,325
2016-05-23T10:13:42.406Z,335
2016-05-23T10:14:39.750Z,360
2016-05-23T10:15:38.815Z,370
2016-05-23T10:16:40.586Z,380
2016-05-23T10:17:41.463Z,390
2016-05-23T10:18:39.416Z,385
2016-05-23T10:19:39.576Z,385
2016-05-23T10:20:39.422Z,390
2016-05-23T10:21:39.910Z,395
2016-05-23T10:22:42.055Z,380
2016-05-23T10:23:39.586Z,360
2016-05-23T10:24:42.858Z,345
2016-05-23T10:25:40.249Z,345
2016-05-23T10:26:39.719Z,340
2016-05-23T10:27:40.066Z,330
2016-05-23T10:28:39.819Z,355
2016-05-23T10:29:43.121Z,370
2016-05-23T10:30:39.996Z,375
2016-05-23T10:31:43.768Z,380
2016-05-23T10:32:43.239Z,395
2016-05-23T10:33:46.162Z,395
2016-05-23T10:34:49.712Z,395
2016-05-23T10:35:45.137Z,380
2016-05-23T10:36:45.390Z,355
2016-05-23T10:37:46.892Z,335
2016-05-23T10:38:50.489Z,330
2016-05-23T10:39:47.757Z,330
2016-05-23T10:40:44.964Z,335
2016-05-23T10:41:45.903Z,330
2016-05-23T10:42:45.984Z,310
2016-05-23T10:43:45.564Z,275
2016-05-23T10:44:46.083Z,255
2016-05-23T10:45:43.648Z,235
2016-05-23T10:46:44.011Z,210
2016-05-23T10:47:43.294Z,195
2016-05-23T10:48:45.063Z,175
2016-05-23T10:49:44.816Z,160
2016-05-23T10:50:49.475Z,155
2016-05-23T10:51:48.164Z,145
2016-05-23T10:52:45.246Z,140
2016-05-23T10:53:42.952Z,140
2016-05-23T10:54:44.955Z,145
2016-05-23T10:55:41.316Z,145
2016-05-23T10:56:42.177Z,150
2016-05-23T10:57:41.555Z,165
2016-05-23T10:58:42.152Z,175
2016-05-23T10:59:45.546Z,190
2016-05-23T11:00:42.985Z,200
2016-05-23T11:01:42.973Z,215
2016-05-23T11:02:43.241Z,225
2016-05-23T11:03:42.041Z,225
2016-05-23T11:04:48.559Z,235
2016-05-23T11:05:44.593Z,235
2016-05-23T11:06:42.971Z,235
2016-05-23T11:07:43.115Z,240
2016-05-23T11:08:43.226Z,250
2016-05-23T11:09:44.448Z,255
2016-05-23T11:10:41.903Z,250
2016-05-23T11:11:42.093Z,245
2016-05-23T11:12:43.909Z,240
2016-05-23T11:13:41.973Z,240
2016-05-23T11:14:42.680Z,240
2016-05-23T11:15:42.151Z,230
2016-05-23T11:16:42.889Z,220
2016-05-23T11:17:42.657Z,215
2016-05-23T11:18:42.706Z,215
2016-05-23T11:19:42.128Z,220
2016-05-23T11:20:42.211Z,215
2016-05-23T11:21:42.292Z,215
2016-05-23T11:22:42.245Z,210
2016-05-23T11:23:42.217Z,210
2016-05-23T11:24:42.410Z,215
2016-05-23T11:25:44.053Z,220
2016-05-23T11:26:43.869Z,235
2016-05-23T11:27:42.449Z,245
2016-05-23T11:28:42.433Z,250
2016-05-23T11:29:43.299Z,245
2016-05-23T11:30:42.582Z,240
2016-05-23T11:31:42.663Z,240
2016-05-23T11:32:42.507Z,230
2016-05-23T11:33:43.247Z,205
2016-05-23T11:34:42.905Z,185
2016-05-23T11:35:43.565Z,180
2016-05-23T11:36:44.333Z,175
2016-05-23T11:37:42.898Z,170
2016-05-23T11:38:44.073Z,170
2016-05-23T11:39:45.059Z,185
2016-05-23T11:40:44.546Z,225
2016-05-23T11:41:43.112Z,295
2016-05-23T11:42:43.395Z,370
2016-05-23T11:43:43.742Z,360
2016-05-23T11:44:43.089Z,325
2016-05-23T11:45:43.278Z,295
2016-05-23T11:46:43.312Z,240
2016-05-23T11:47:43.331Z,210
2016-05-23T11:48:43.458Z,205
2016-05-23T11:49:43.399Z,205
2016-05-23T11:50:43.386Z,210
2016-05-23T11:51:43.701Z,220
2016-05-23T11:52:44.048Z,255
2016-05-23T11:53:43.847Z,280
2016-05-23T11:54:45.506Z,285
2016-05-23T11:55:47.133Z,275
2016-05-23T11:56:47.089Z,240
2016-05-23T11:57:43.889Z,205
2016-05-23T11:58:46.205Z,185
2016-05-23T11:59:44.223Z,180
2016-05-23T12:00:44.318Z,175
2016-05-23T12:01:43.977Z,175
2016-05-23T12:02:44.496Z,180
2016-05-23T12:03:44.280Z,180
2016-05-23T12:04:46.299Z,185
2016-05-23T12:05:44.193Z,190
2016-05-23T12:06:44.929Z,215
2016-05-23T12:07:47.010Z,250
2016-05-23T12:08:44.794Z,295
2016-05-23T12:09:45.375Z,370
2016-05-23T12:10:46.737Z,480
2016-05-23T12:11:47.833Z,560
2016-05-23T12:12:48.507Z,600
2016-05-23T12:13:44.479Z,600
2016-05-23T12:14:50.232Z,610
2016-05-23T12:15:45.484Z,650
2016-05-23T12:16:46.862Z,695
2016-05-23T12:17:45.755Z,675
2016-05-23T12:18:47.523Z,600
2016-05-23T12:19:47.276Z,615
2016-05-23T12:20:47.561Z,620
2016-05-23T12:21:48.032Z,585
2016-05-23T12:22:46.831Z,540
2016-05-23T12:23:45.225Z,480
2016-05-23T12:24:47.383Z,410
2016-05-23T12:25:46.511Z,385
2016-05-23T12:26:47.624Z,375
2016-05-23T12:27:47.142Z,385
2016-05-23T12:28:47.175Z,390
2016-05-23T12:29:49.928Z,410
2016-05-23T12:30:49.681Z,430
2016-05-23T12:31:46.512Z,450
2016-05-23T12:32:50.202Z,480
2016-05-23T12:33:45.595Z,505
2016-05-23T12:34:46.582Z,550
2016-05-23T12:35:45.773Z,575
2016-05-23T12:36:51.151Z,580
2016-05-23T12:37:45.763Z,595
2016-05-23T12:38:46.093Z,555
2016-05-23T12:39:47.329Z,440
2016-05-23T12:40:47.942Z,370
2016-05-23T12:41:47.554Z,365
2016-05-23T12:42:46.213Z,420
2016-05-23T12:43:47.591Z,510
2016-05-23T12:44:45.765Z,625
2016-05-23T12:45:46.065Z,765
2016-05-23T12:46:46.256Z,970
2016-05-23T12:47:46.462Z,1180
2016-05-23T12:48:47.636Z,1275
2016-05-23T12:49:46.185Z,1595
2016-05-23T12:50:46.657Z,1015
2016-05-23T12:51:47.253Z,990
2016-05-23T12:52:46.772Z,1150
2016-05-23T12:53:46.493Z,875
2016-05-23T12:54:46.886Z,755
2016-05-23T12:55:47.013Z,740
2016-05-23T12:56:46.532Z,705
2016-05-23T12:57:52.457Z,650
2016-05-23T12:58:49.616Z,605
2016-05-23T12:59:50.321Z,570
2016-05-23T13:00:46.965Z,555
2016-05-23T13:01:48.796Z,545
2016-05-23T13:02:47.158Z,555
2016-05-23T13:03:49.988Z,575
2016-05-23T13:04:48.132Z,605
2016-05-23T13:05:48.479Z,620
2016-05-23T13:06:50.559Z,665
2016-05-23T13:07:49.812Z,775
2016-05-23T13:08:47.408Z,930
2016-05-23T13:09:48.677Z,1435
2016-05-23T13:10:47.226Z,1070
2016-05-23T13:11:49.791Z,1145
2016-05-23T13:12:47.340Z,1075
2016-05-23T13:13:47.593Z,940
2016-05-23T13:14:49.533Z,1030
2016-05-23T13:15:49.849Z,1155
2016-05-23T13:16:48.633Z,925
2016-05-23T13:17:48.948Z,770
2016-05-23T13:18:47.654Z,715
2016-05-23T13:19:47.656Z,755
2016-05-23T13:20:47.800Z,890
2016-05-23T13:21:48.631Z,1355
2016-05-23T13:22:47.820Z,1920
2016-05-23T13:23:47.933Z,2055
2016-05-23T13:24:47.951Z,2045
2016-05-23T13:25:47.970Z,1850
2016-05-23T13:26:48.831Z,1080
2016-05-23T13:27:48.491Z,1140
2016-05-23T13:28:48.166Z,1925
2016-05-23T13:29:49.511Z,1380
2016-05-23T13:30:48.311Z,1055
2016-05-23T13:31:48.704Z,1020
2016-05-23T13:32:48.161Z,1470
2016-05-23T13:33:48.100Z,2195
2016-05-23T13:34:50.759Z,1515
2016-05-23T13:35:49.497Z,2305
2016-05-23T13:36:51.124Z,2200
2016-05-23T13:37:48.704Z,1930
2016-05-23T13:38:49.411Z,1035
2016-05-23T13:39:49.820Z,1150
2016-05-23T13:40:48.573Z,1245
2016-05-23T13:41:49.232Z,1030
2016-05-23T13:42:50.500Z,920
2016-05-23T13:43:49.564Z,980
2016-05-23T13:44:50.662Z,1645
2016-05-23T13:45:49.836Z,975
2016-05-23T13:46:49.135Z,1245
2016-05-23T13:47:49.309Z,1740
2016-05-23T13:48:49.656Z,1220
2016-05-23T13:49:52.847Z,990
2016-05-23T13:50:51.084Z,1110
2016-05-23T13:51:50.228Z,880
2016-05-23T13:52:49.402Z,935
2016-05-23T13:53:49.872Z,1050
2016-05-23T13:54:49.531Z,920
2016-05-23T13:55:49.691Z,835
2016-05-23T13:56:50.053Z,910
2016-05-23T13:57:49.774Z,825
2016-05-23T13:58:51.136Z,825
2016-05-23T13:59:49.905Z,850